Time;durP1;ratioP1;P1;durP2;ratioP2;P2;SDS_P1;SDS_P2;PMS_P1;PMS_P2;Temp;Humidity;BMP_temperature;BMP_pressure;BME280_temperature;BME280_humidity;BME280_pressure;Samples;Min_cycle;Max_cycle;Signal;HPM_P1;HPM_P2
2023/08/20 00:00:36;;;;;;;9.77;6.53;;;;;;;;;;5014066;28;20050;-60
2023/08/20 00:03:05;;;;;;;13.05;6.55;;;;;;;;;;5013794;28;20053;-60
2023/08/20 00:05:32;;;;;;;8.20;5.97;;;;;;;;;;5012592;28;20076;-57
2023/08/20 00:07:59;;;;;;;7.82;5.53;;;;;;;;;;5013661;28;20425;-58
2023/08/20 00:10:26;;;;;;;8.35;6.10;;;;;;;;;;5013699;28;20042;-56
2023/08/20 00:12:54;;;;;;;8.75;5.93;;;;;;;;;;5012553;28;20046;-57
2023/08/20 00:15:22;;;;;;;6.32;5.50;;;;;;;;;;5013683;28;20053;-57
2023/08/20 00:17:49;;;;;;;9.25;5.88;;;;;;;;;;5013394;28;20057;-56
2023/08/20 00:20:16;;;;;;;9.07;6.13;;;;;;;;;;5013085;28;20056;-56
2023/08/20 00:22:45;;;;;;;8.80;5.93;;;;;;;;;;5013666;28;20057;-54
2023/08/20 00:25:12;;;;;;;7.47;6.47;;;;;;;;;;5013233;28;20042;-57
2023/08/20 00:27:39;;;;;;;7.93;5.93;;;;;;;;;;5013387;28;20141;-58
2023/08/20 00:30:08;;;;;;;9.15;6.47;;;;;;;;;;5013198;28;20054;-52
2023/08/20 00:32:35;;;;;;;8.32;5.93;;;;;;;;;;5012667;28;20046;-52
2023/08/20 00:35:02;;;;;;;8.13;5.88;;;;;;;;;;5012936;28;20054;-55
2023/08/20 00:37:30;;;;;;;9.00;5.40;;;;;;;;;;5013386;28;20056;-51
2023/08/20 00:39:58;;;;;;;8.38;5.63;;;;;;;;;;5013079;28;20045;-52
2023/08/20 00:42:25;;;;;;;8.70;5.95;;;;;;;;;;5013298;28;20046;-55
2023/08/20 00:44:52;;;;;;;8.75;5.90;;;;;;;;;;5012930;28;20054;-57
2023/08/20 00:47:21;;;;;;;10.10;6.13;;;;;;;;;;5012994;28;20073;-57
2023/08/20 00:49:49;;;;;;;9.63;6.30;;;;;;;;;;5013127;28;20046;-59
2023/08/20 00:52:17;;;;;;;10.32;6.28;;;;;;;;;;5012625;28;20060;-57
2023/08/20 00:54:45;;;;;;;8.10;5.53;;;;;;;;;;5012797;28;20042;-53
2023/08/20 00:57:14;;;;;;;7.25;5.90;;;;;;;;;;5012836;28;20149;-54
2023/08/20 00:59:41;;;;;;;7.85;6.30;;;;;;;;;;5012806;28;20669;-54
2023/08/20 01:02:08;;;;;;;9.02;6.07;;;;;;;;;;5013099;28;20068;-54
2023/08/20 01:04:36;;;;;;;8.90;6.05;;;;;;;;;;5012941;28;20042;-53
2023/08/20 01:07:09;;;;;;;9.20;6.38;;;;;;;;;;5012720;28;20469;-56
2023/08/20 01:09:49;;;;;;;8.52;6.18;;;;;;;;;;5012816;28;20058;-55
2023/08/20 01:12:17;;;;;;;;;;;;;;;;;;5013170;28;20125;-58
2023/08/20 01:14:44;;;;;;;8.07;6.43;;;;;;;;;;5012402;28;19922;-57
2023/08/20 01:17:10;;;;;;;10.40;6.70;;;;;;;;;;5021696;28;20049;-53
2023/08/20 01:19:38;;;;;;;8.75;6.05;;;;;;;;;;5032113;28;20049;-54
2023/08/20 01:22:25;;;;;;;8.30;5.93;;;;;;;;;;5032111;28;20049;-53
2023/08/20 01:25:05;;;;;;;8.45;6.18;;;;;;;;;;5031913;28;20063;-56
2023/08/20 01:27:45;;;;;;;7.90;6.23;;;;;;;;;;5032382;28;20128;-52
2023/08/20 01:30:13;;;;;;;10.30;6.22;;;;;;;;;;5032107;28;20287;-58
2023/08/20 01:32:42;;;;;;;7.90;6.35;;;;;;;;;;5011493;28;20073;-54
2023/08/20 01:35:12;;;;;;;8.63;6.38;;;;;;;;;;5012049;28;20647;-56
2023/08/20 01:37:39;;;;;;;9.00;7.28;;;;;;;;;;5012302;28;20054;-59
2023/08/20 01:40:08;;;;;;;8.40;6.47;;;;;;;;;;5012064;28;20369;-54
2023/08/20 01:42:34;;;;;;;7.95;5.80;;;;;;;;;;5012136;28;20046;-55
2023/08/20 01:45:01;;;;;;;9.02;6.25;;;;;;;;;;5011920;28;20048;-56
2023/08/20 01:47:29;;;;;;;8.35;6.50;;;;;;;;;;5012213;28;20054;-54
2023/08/20 01:49:55;;;;;;;7.53;6.03;;;;;;;;;;5011789;28;20542;-57
2023/08/20 01:52:22;;;;;;;7.93;6.55;;;;;;;;;;5011986;28;20067;-57
2023/08/20 01:54:49;;;;;;;8.65;6.65;;;;;;;;;;5012099;28;20046;-56
2023/08/20 01:57:16;;;;;;;9.27;7.18;;;;;;;;;;5011893;28;20046;-55
2023/08/20 01:59:43;;;;;;;7.45;6.63;;;;;;;;;;5011917;28;20480;-55
2023/08/20 02:02:10;;;;;;;9.57;6.60;;;;;;;;;;5011862;28;20140;-57
2023/08/20 02:04:38;;;;;;;9.98;7.55;;;;;;;;;;5011662;28;20161;-58
2023/08/20 02:07:04;;;;;;;8.27;6.75;;;;;;;;;;5011938;28;20050;-58
2023/08/20 02:09:31;;;;;;;10.77;7.65;;;;;;;;;;5011860;28;20050;-57
2023/08/20 02:11:58;;;;;;;9.85;7.68;;;;;;;;;;5011541;28;20448;-53
2023/08/20 02:14:26;;;;;;;8.32;6.10;;;;;;;;;;5011765;28;20136;-54
2023/08/20 02:16:53;;;;;;;7.03;6.22;;;;;;;;;;5011061;28;20050;-57
2023/08/20 02:19:20;;;;;;;7.28;6.55;;;;;;;;;;5011588;28;20442;-51
2023/08/20 02:21:48;;;;;;;9.13;6.82;;;;;;;;;;5011821;28;20056;-55
2023/08/20 02:24:14;;;;;;;9.05;6.20;;;;;;;;;;5011767;28;20053;-54
2023/08/20 02:26:41;;;;;;;7.82;6.18;;;;;;;;;;5011466;28;20174;-54
2023/08/20 02:29:07;;;;;;;9.73;7.00;;;;;;;;;;5011577;28;20474;-57
2023/08/20 02:31:34;;;;;;;9.23;6.25;;;;;;;;;;5011099;28;20424;-51
2023/08/20 02:34:01;;;;;;;8.13;6.30;;;;;;;;;;5011587;28;20056;-52
2023/08/20 02:36:27;;;;;;;8.45;6.10;;;;;;;;;;5011325;28;20045;-54
2023/08/20 02:38:55;;;;;;;7.88;6.32;;;;;;;;;;5011272;28;20046;-56
2023/08/20 02:41:22;;;;;;;7.88;5.90;;;;;;;;;;5011344;28;20046;-57
2023/08/20 02:43:49;;;;;;;7.97;6.05;;;;;;;;;;5013678;28;20410;-56
2023/08/20 02:46:16;;;;;;;8.48;6.30;;;;;;;;;;5014806;28;20046;-54
2023/08/20 02:48:42;;;;;;;8.13;6.38;;;;;;;;;;5015454;28;20133;-51
2023/08/20 02:51:09;;;;;;;7.47;5.93;;;;;;;;;;5015175;28;20057;-55
2023/08/20 02:53:35;;;;;;;7.68;6.05;;;;;;;;;;5015098;28;20050;-52
2023/08/20 02:56:04;;;;;;;8.38;6.68;;;;;;;;;;5015076;28;20491;-55
2023/08/20 02:58:31;;;;;;;7.83;5.93;;;;;;;;;;5014733;28;20049;-56
2023/08/20 03:00:58;;;;;;;8.68;6.60;;;;;;;;;;5015092;28;20338;-52
2023/08/20 03:03:25;;;;;;;6.85;5.53;;;;;;;;;;5014814;28;20098;-54
2023/08/20 03:05:51;;;;;;;8.60;6.43;;;;;;;;;;5014819;28;20072;-57
2023/08/20 03:08:18;;;;;;;8.98;6.88;;;;;;;;;;5015139;28;20148;-54
2023/08/20 03:10:44;;;;;;;7.80;6.35;;;;;;;;;;5014307;28;20124;-54
2023/08/20 03:13:12;;;;;;;8.13;5.97;;;;;;;;;;5014488;28;20049;-56
2023/08/20 03:15:39;;;;;;;7.57;6.30;;;;;;;;;;5014756;28;20136;-53
2023/08/20 03:18:07;;;;;;;10.75;6.95;;;;;;;;;;5014475;28;20050;-52
2023/08/20 03:20:34;;;;;;;7.38;5.78;;;;;;;;;;5014561;28;20108;-57
2023/08/20 03:23:01;;;;;;;8.80;6.30;;;;;;;;;;5014572;28;20385;-52
2023/08/20 03:25:27;;;;;;;8.05;6.72;;;;;;;;;;5014456;28;20104;-56
2023/08/20 03:27:54;;;;;;;9.02;6.75;;;;;;;;;;5014496;28;20074;-54
2023/08/20 03:30:22;;;;;;;7.43;6.07;;;;;;;;;;5014113;28;20048;-56
2023/08/20 03:32:49;;;;;;;9.10;6.85;;;;;;;;;;5014481;28;20052;-52
2023/08/20 03:35:15;;;;;;;9.15;7.10;;;;;;;;;;5014408;28;20414;-56
2023/08/20 03:37:42;;;;;;;9.10;7.53;;;;;;;;;;5014452;28;20088;-53
2023/08/20 03:40:09;;;;;;;10.52;7.10;;;;;;;;;;5014172;28;20053;-56
2023/08/20 03:42:36;;;;;;;8.90;6.88;;;;;;;;;;5014118;28;20050;-54
2023/08/20 03:45:02;;;;;;;10.15;6.35;;;;;;;;;;5014152;28;20056;-57
2023/08/20 03:47:30;;;;;;;10.38;7.30;;;;;;;;;;5014386;28;20132;-56
2023/08/20 03:49:57;;;;;;;9.02;6.55;;;;;;;;;;5013896;28;20049;-56
2023/08/20 03:52:24;;;;;;;8.18;6.50;;;;;;;;;;5014159;28;20076;-51
2023/08/20 03:54:51;;;;;;;7.30;6.03;;;;;;;;;;5013235;28;20133;-55
2023/08/20 03:57:17;;;;;;;9.45;6.05;;;;;;;;;;5014216;28;20479;-53
2023/08/20 03:59:45;;;;;;;8.07;6.55;;;;;;;;;;5014123;28;20486;-52
2023/08/20 04:02:11;;;;;;;8.80;6.07;;;;;;;;;;5013758;28;20100;-51
2023/08/20 04:04:39;;;;;;;7.75;5.97;;;;;;;;;;5013959;28;20052;-50
2023/08/20 04:07:06;;;;;;;9.75;6.20;;;;;;;;;;5013536;28;20148;-52
2023/08/20 04:09:33;;;;;;;8.10;6.57;;;;;;;;;;5013710;28;20045;-54
2023/08/20 04:12:00;;;;;;;9.60;6.57;;;;;;;;;;5013889;28;20392;-51
2023/08/20 04:14:27;;;;;;;9.20;6.60;;;;;;;;;;5013822;28;20046;-51
2023/08/20 04:16:53;;;;;;;9.75;7.18;;;;;;;;;;5013520;28;20464;-59
2023/08/20 04:19:20;;;;;;;8.25;6.97;;;;;;;;;;5013461;28;20060;-54
2023/08/20 04:21:48;;;;;;;10.20;7.63;;;;;;;;;;5013561;28;20050;-58
2023/08/20 04:24:15;;;;;;;8.63;7.32;;;;;;;;;;5013438;28;20144;-55
2023/08/20 04:26:42;;;;;;;9.60;7.40;;;;;;;;;;5013634;28;20492;-57
2023/08/20 04:29:08;;;;;;;8.82;7.30;;;;;;;;;;5013206;28;20100;-55
2023/08/20 04:31:35;;;;;;;9.73;7.50;;;;;;;;;;5013253;28;20056;-51
2023/08/20 04:34:02;;;;;;;8.77;7.03;;;;;;;;;;5013270;28;20041;-51
2023/08/20 04:36:28;;;;;;;9.88;6.95;;;;;;;;;;5013157;28;20046;-55
2023/08/20 04:38:56;;;;;;;10.48;7.05;;;;;;;;;;5012939;28;20050;-54
2023/08/20 04:41:23;;;;;;;11.43;6.63;;;;;;;;;;5013047;28;20133;-54
2023/08/20 04:43:50;;;;;;;8.23;7.07;;;;;;;;;;5013020;28;20046;-53
2023/08/20 04:46:16;;;;;;;9.57;7.00;;;;;;;;;;5013084;28;20045;-52
2023/08/20 04:48:43;;;;;;;11.88;7.85;;;;;;;;;;5013002;28;20061;-55
2023/08/20 04:51:10;;;;;;;11.88;7.45;;;;;;;;;;5012898;28;20538;-53
2023/08/20 04:53:37;;;;;;;9.73;7.07;;;;;;;;;;5013166;28;20064;-52
2023/08/20 04:56:05;;;;;;;10.40;7.20;;;;;;;;;;5012951;28;20053;-54
2023/08/20 04:58:31;;;;;;;8.65;6.45;;;;;;;;;;5012507;28;20134;-57
2023/08/20 05:00:58;;;;;;;8.60;7.10;;;;;;;;;;5012711;28;20138;-56
2023/08/20 05:03:25;;;;;;;9.32;7.63;;;;;;;;;;5012896;28;20077;-54
2023/08/20 05:05:52;;;;;;;9.65;8.05;;;;;;;;;;5012330;28;20115;-57
2023/08/20 05:08:18;;;;;;;9.50;8.00;;;;;;;;;;5012501;28;20483;-60
2023/08/20 05:10:45;;;;;;;9.68;8.20;;;;;;;;;;5012846;28;20045;-53
2023/08/20 05:13:13;;;;;;;9.60;8.60;;;;;;;;;;5012808;28;20509;-53
2023/08/20 05:15:39;;;;;;;10.15;8.43;;;;;;;;;;5012538;28;20136;-56
2023/08/20 05:18:06;;;;;;;9.15;8.13;;;;;;;;;;5028089;22;21332;-81
2023/08/20 05:20:33;;;;;;;11.50;8.35;;;;;;;;;;5040847;28;20052;-82
2023/08/20 05:22:59;;;;;;;10.45;7.57;;;;;;;;;;5040632;28;20103;-82
2023/08/20 05:25:26;;;;;;;9.70;7.60;;;;;;;;;;5041281;28;20206;-83
2023/08/20 05:27:53;;;;;;;9.73;7.45;;;;;;;;;;5041019;28;20052;-82
2023/08/20 05:30:21;;;;;;;9.00;6.82;;;;;;;;;;5041120;28;20578;-82
2023/08/20 05:32:47;;;;;;;8.88;6.43;;;;;;;;;;5041714;28;20059;-82
2023/08/20 05:35:14;;;;;;;9.27;5.93;;;;;;;;;;5041652;28;20120;-81
2023/08/20 05:37:40;;;;;;;10.30;6.03;;;;;;;;;;5041662;28;20050;-81
2023/08/20 05:40:08;;;;;;;8.45;6.07;;;;;;;;;;5041366;28;20056;-82
2023/08/20 05:42:35;;;;;;;8.82;6.75;;;;;;;;;;5041031;28;20080;-82
2023/08/20 05:45:02;;;;;;;9.13;6.43;;;;;;;;;;5041560;28;20052;-82
2023/08/20 05:47:29;;;;;;;7.38;5.70;;;;;;;;;;5040979;28;20046;-82
2023/08/20 05:49:56;;;;;;;8.00;5.97;;;;;;;;;;5040906;28;20112;-81
2023/08/20 05:52:23;;;;;;;7.22;5.70;;;;;;;;;;5040019;28;20053;-82
2023/08/20 05:54:49;;;;;;;7.95;6.15;;;;;;;;;;5040058;28;20132;-82
2023/08/20 05:57:16;;;;;;;8.27;5.90;;;;;;;;;;5040114;28;20056;-82
2023/08/20 05:59:43;;;;;;;8.52;6.35;;;;;;;;;;5040729;28;20049;-82
2023/08/20 06:02:09;;;;;;;6.75;5.50;;;;;;;;;;5040459;28;20049;-82
2023/08/20 06:04:37;;;;;;;9.13;5.82;;;;;;;;;;5040965;28;20055;-83
2023/08/20 06:07:03;;;;;;;8.75;5.80;;;;;;;;;;5039808;28;20140;-83
2023/08/20 06:09:30;;;;;;;9.75;6.50;;;;;;;;;;5039779;28;20064;-82
2023/08/20 06:11:57;;;;;;;9.43;6.20;;;;;;;;;;5040583;28;20444;-82
2023/08/20 06:14:23;;;;;;;10.27;5.97;;;;;;;;;;5040410;28;20108;-82
2023/08/20 06:16:50;;;;;;;9.68;6.38;;;;;;;;;;5040941;28;20056;-83
2023/08/20 06:19:16;;;;;;;8.18;6.00;;;;;;;;;;5043526;28;20045;-82
2023/08/20 06:21:44;;;;;;;7.97;6.13;;;;;;;;;;5044771;28;20483;-83
2023/08/20 06:24:11;;;;;;;7.90;6.03;;;;;;;;;;5045585;28;20041;-82
2023/08/20 06:26:37;;;;;;;14.48;6.47;;;;;;;;;;5045043;28;20049;-82
2023/08/20 06:29:04;;;;;;;8.20;5.88;;;;;;;;;;5044020;28;20519;-82
2023/08/20 06:31:31;;;;;;;8.52;6.32;;;;;;;;;;5045790;28;20045;-83
2023/08/20 06:33:58;;;;;;;8.73;6.47;;;;;;;;;;5045488;28;20147;-83
2023/08/20 06:36:24;;;;;;;7.80;6.00;;;;;;;;;;5043040;28;20045;-83
2023/08/20 06:38:52;;;;;;;9.20;6.97;;;;;;;;;;5043434;28;20053;-83
2023/08/20 06:41:19;;;;;;;7.13;5.43;;;;;;;;;;5042726;28;20053;-83
2023/08/20 06:43:45;;;;;;;8.48;5.70;;;;;;;;;;5042469;28;20048;-83
2023/08/20 06:46:12;;;;;;;8.07;5.53;;;;;;;;;;5043359;28;20411;-83
2023/08/20 06:48:38;;;;;;;8.45;6.20;;;;;;;;;;5043296;28;20067;-83
2023/08/20 06:51:33;;;;;;;8.95;6.00;;;;;;;;;;5043439;28;20420;-83
2023/08/20 06:54:01;;;;;;;9.25;6.20;;;;;;;;;;5039635;28;20495;-80
2023/08/20 06:56:27;;;;;;;9.30;6.18;;;;;;;;;;5039426;28;20053;-79
2023/08/20 06:58:55;;;;;;;9.82;5.53;;;;;;;;;;5038283;28;20083;-80
2023/08/20 07:01:21;;;;;;;8.88;5.75;;;;;;;;;;5039262;28;20499;-79
2023/08/20 07:03:48;;;;;;;9.90;5.90;;;;;;;;;;5038553;28;20052;-79
2023/08/20 07:06:16;;;;;;;8.23;5.70;;;;;;;;;;5039847;28;20049;-79
2023/08/20 07:08:42;;;;;;;8.02;5.97;;;;;;;;;;5039823;28;20508;-79
2023/08/20 07:11:10;;;;;;;9.65;5.85;;;;;;;;;;5041492;28;20068;-80
2023/08/20 07:13:37;;;;;;;8.57;5.60;;;;;;;;;;5041878;28;20045;-80
2023/08/20 07:16:04;;;;;;;7.53;5.53;;;;;;;;;;5045484;28;20499;-78
2023/08/20 07:18:31;;;;;;;7.47;5.68;;;;;;;;;;5049052;28;20045;-79
2023/08/20 07:20:57;;;;;;;7.55;5.80;;;;;;;;;;5049146;28;20045;-79
2023/08/20 07:23:24;;;;;;;10.07;6.03;;;;;;;;;;5038466;28;20052;-79
2023/08/20 07:25:52;;;;;;;8.70;6.03;;;;;;;;;;5037499;28;20053;-80
2023/08/20 07:28:56;;;;;;;7.32;5.63;;;;;;;;;;5037176;28;20100;-80
2023/08/20 07:31:07;;;;;;;9.27;5.63;;;;;;;;;;5035424;28;20049;-80
2023/08/20 07:33:33;;;;;;;8.25;5.88;;;;;;;;;;5037174;28;20070;-80
2023/08/20 07:36:00;;;;;;;9.07;6.38;;;;;;;;;;5037383;28;20052;-80
2023/08/20 07:38:26;;;;;;;9.88;5.68;;;;;;;;;;5037424;28;20050;-79
2023/08/20 07:40:53;;;;;;;9.70;6.13;;;;;;;;;;5039777;28;20425;-80
2023/08/20 07:43:21;;;;;;;10.00;6.25;;;;;;;;;;5040378;28;20167;-80
2023/08/20 07:45:48;;;;;;;7.72;6.50;;;;;;;;;;5041392;28;20045;-81
2023/08/20 07:48:15;;;;;;;8.45;5.72;;;;;;;;;;5054247;28;20033;-81
2023/08/20 07:50:41;;;;;;;8.52;5.57;;;;;;;;;;5057030;28;20152;-79
2023/08/20 07:53:08;;;;;;;8.88;6.00;;;;;;;;;;5039323;28;20124;-80
2023/08/20 07:55:34;;;;;;;8.43;5.90;;;;;;;;;;5040424;28;20072;-80
2023/08/20 07:58:01;;;;;;;8.40;5.00;;;;;;;;;;5041703;28;20105;-81
2023/08/20 08:00:29;;;;;;;8.98;5.90;;;;;;;;;;5042194;28;20047;-80
2023/08/20 08:02:55;;;;;;;8.20;5.97;;;;;;;;;;5040917;28;20045;-81
2023/08/20 08:05:22;;;;;;;7.90;5.45;;;;;;;;;;5042667;28;20379;-80
2023/08/20 08:07:48;;;;;;;9.15;5.57;;;;;;;;;;5043372;28;20049;-80
2023/08/20 08:10:15;;;;;;;7.10;5.40;;;;;;;;;;5042553;28;20415;-79
2023/08/20 08:12:41;;;;;;;7.63;5.97;;;;;;;;;;5041497;28;20095;-80
2023/08/20 08:15:08;;;;;;;6.97;5.78;;;;;;;;;;5041150;28;20050;-81
2023/08/20 08:17:36;;;;;;;10.02;5.85;;;;;;;;;;5041383;28;20068;-80
2023/08/20 08:20:03;;;;;;;7.50;5.85;;;;;;;;;;5041443;28;20052;-79
2023/08/20 08:22:30;;;;;;;8.02;6.22;;;;;;;;;;5040895;28;20055;-80
2023/08/20 08:24:56;;;;;;;9.05;5.20;;;;;;;;;;5043904;28;20072;-81
2023/08/20 08:27:23;;;;;;;8.93;6.18;;;;;;;;;;5041164;28;20104;-80
2023/08/20 08:29:49;;;;;;;9.20;5.78;;;;;;;;;;5041876;28;20056;-81
2023/08/20 08:32:16;;;;;;;7.75;5.65;;;;;;;;;;5041090;28;20048;-80
2023/08/20 08:34:44;;;;;;;8.80;5.40;;;;;;;;;;5039652;28;20045;-81
2023/08/20 08:37:10;;;;;;;7.40;5.05;;;;;;;;;;5037365;28;20053;-81
2023/08/20 08:39:37;;;;;;;9.38;5.40;;;;;;;;;;5037959;28;20060;-79
2023/08/20 08:42:07;;;;;;;8.93;5.50;;;;;;;;;;5037333;28;20045;-80
2023/08/20 08:44:34;;;;;;;7.45;5.80;;;;;;;;;;5036839;28;20091;-80
2023/08/20 08:47:00;;;;;;;8.38;5.80;;;;;;;;;;5037518;28;20104;-79
2023/08/20 08:49:29;;;;;;;9.93;5.57;;;;;;;;;;5037034;28;20407;-80
2023/08/20 08:51:58;;;;;;;7.17;5.20;;;;;;;;;;5037386;28;20080;-80
2023/08/20 08:54:24;;;;;;;8.25;5.40;;;;;;;;;;5038553;28;20423;-81
2023/08/20 08:56:51;;;;;;;7.50;5.57;;;;;;;;;;5037562;28;20057;-79
2023/08/20 08:59:18;;;;;;;8.48;5.53;;;;;;;;;;5038038;28;20041;-77
2023/08/20 09:01:44;;;;;;;8.55;5.32;;;;;;;;;;5037866;28;20053;-82
2023/08/20 09:04:11;;;;;;;7.10;5.22;;;;;;;;;;5040971;28;20046;-81
2023/08/20 09:06:48;;;;;;;7.25;5.43;;;;;;;;;;5042754;28;20106;-80
2023/08/20 09:09:19;;;;;;;8.07;5.22;;;;;;;;;;5044630;28;20108;-80
2023/08/20 09:11:45;;;;;;;7.25;5.28;;;;;;;;;;5046206;28;20042;-80
2023/08/20 09:14:22;;;;;;;6.53;5.30;;;;;;;;;;5046361;28;20105;-80
2023/08/20 09:16:55;;;;;;;7.18;5.22;;;;;;;;;;5039597;28;20504;-81
2023/08/20 09:19:21;;;;;;;6.03;4.72;;;;;;;;;;5040224;28;20045;-81
2023/08/20 09:21:49;;;;;;;8.52;4.93;;;;;;;;;;5040447;28;20080;-81
2023/08/20 09:24:17;;;;;;;7.72;4.88;;;;;;;;;;5049607;28;20057;-82
2023/08/20 09:26:46;;;;;;;7.65;5.00;;;;;;;;;;5038419;28;20052;-81
2023/08/20 09:29:13;;;;;;;8.93;5.10;;;;;;;;;;5038664;28;20075;-81
2023/08/20 09:31:41;;;;;;;7.53;5.10;;;;;;;;;;5038782;28;20068;-81
2023/08/20 09:34:13;;;;;;;7.63;5.47;;;;;;;;;;5038754;28;20042;-81
2023/08/20 09:36:40;;;;;;;6.90;5.05;;;;;;;;;;5037360;28;20104;-81
2023/08/20 09:39:07;;;;;;;6.63;5.07;;;;;;;;;;5037521;28;20048;-82
2023/08/20 09:41:38;;;;;;;6.97;4.82;;;;;;;;;;5039187;28;20053;-82
2023/08/20 09:44:06;;;;;;;8.85;4.88;;;;;;;;;;5023266;28;20041;-81
2023/08/20 09:46:36;;;;;;;7.13;4.53;;;;;;;;;;5037124;28;20120;-82
2023/08/20 09:49:03;;;;;;;;;;;;;;;;;;5037620;28;20461;-84
2023/08/20 09:51:34;;;;;;;6.68;5.10;;;;;;;;;;5036708;28;19921;-80
2023/08/20 09:54:07;;;;;;;5.82;4.28;;;;;;;;;;5037021;28;20060;-81
2023/08/20 09:56:40;;;;;;;6.32;4.50;;;;;;;;;;5037347;28;20045;-82
2023/08/20 09:59:07;;;;;;;7.43;4.70;;;;;;;;;;5037440;28;20045;-81
2023/08/20 10:01:35;;;;;;;8.48;4.95;;;;;;;;;;5038508;28;20113;-82
2023/08/20 10:04:01;;;;;;;7.10;5.13;;;;;;;;;;5037974;28;20105;-81
2023/08/20 10:06:30;;;;;;;10.85;5.50;;;;;;;;;;5037997;28;20053;-82
2023/08/20 10:08:57;;;;;;;6.80;4.95;;;;;;;;;;5038542;28;20041;-81
2023/08/20 10:11:24;;;;;;;12.23;6.40;;;;;;;;;;5038416;28;20195;-81
2023/08/20 10:13:52;;;;;;;10.75;6.20;;;;;;;;;;5037269;28;20051;-81
2023/08/20 10:16:21;;;;;;;11.90;5.85;;;;;;;;;;5038510;28;20045;-81
2023/08/20 10:18:48;;;;;;;8.73;5.70;;;;;;;;;;5036301;28;20047;-85
2023/08/20 10:21:14;;;;;;;9.50;5.72;;;;;;;;;;5038218;28;20041;-83
2023/08/20 10:23:42;;;;;;;13.85;6.88;;;;;;;;;;5038485;28;20113;-84
2023/08/20 10:26:09;;;;;;;17.63;13.40;;;;;;;;;;5037457;28;20045;-83
2023/08/20 10:28:36;;;;;;;14.15;9.65;;;;;;;;;;5037119;28;20052;-83
2023/08/20 10:31:12;;;;;;;10.77;8.32;;;;;;;;;;5036786;28;20048;-84
2023/08/20 10:33:40;;;;;;;12.30;8.63;;;;;;;;;;5036760;28;20119;-84
2023/08/20 10:36:11;;;;;;;34.15;23.50;;;;;;;;;;5018024;28;20041;-83
2023/08/20 10:38:38;;;;;;;28.95;20.30;;;;;;;;;;5024698;28;20041;-80
2023/08/20 10:41:08;;;;;;;196.00;80.22;;;;;;;;;;5035355;28;20049;-83
2023/08/20 10:43:37;;;;;;;75.05;31.80;;;;;;;;;;5035625;28;20120;-81
2023/08/20 10:46:14;;;;;;;86.87;37.67;;;;;;;;;;5032626;28;20049;-78
2023/08/20 10:48:41;;;;;;;62.78;29.45;;;;;;;;;;5033665;28;20413;-81
2023/08/20 10:51:10;;;;;;;15.05;7.60;;;;;;;;;;5032736;28;20064;-78
2023/08/20 10:53:37;;;;;;;11.55;6.38;;;;;;;;;;5028744;28;20045;-80
2023/08/20 10:56:14;;;;;;;10.30;6.63;;;;;;;;;;5034578;28;20042;-79
2023/08/20 10:58:46;;;;;;;13.18;8.05;;;;;;;;;;5034066;28;20463;-79
2023/08/20 11:01:23;;;;;;;9.38;6.03;;;;;;;;;;5034538;28;20136;-78
2023/08/20 11:03:51;;;;;;;9.02;6.45;;;;;;;;;;5036615;28;20049;-80
2023/08/20 11:06:18;;;;;;;10.13;6.53;;;;;;;;;;5040116;28;20052;-79
2023/08/20 11:08:45;;;;;;;7.75;5.40;;;;;;;;;;5041406;28;20490;-79
2023/08/20 11:11:13;;;;;;;7.63;5.20;;;;;;;;;;5039472;28;20077;-78
2023/08/20 11:13:39;;;;;;;6.40;5.30;;;;;;;;;;5041134;28;20049;-81
2023/08/20 11:16:08;;;;;;;7.50;4.47;;;;;;;;;;5043397;28;20045;-80
2023/08/20 11:18:36;;;;;;;7.83;5.30;;;;;;;;;;5036458;28;20046;-79
2023/08/20 11:21:07;;;;;;;7.18;4.60;;;;;;;;;;5058952;22;20299;-84
2023/08/20 11:23:35;;;;;;;7.10;4.90;;;;;;;;;;5025382;28;20048;-84
2023/08/20 11:26:02;;;;;;;6.50;4.80;;;;;;;;;;5019386;28;20331;-82
2023/08/20 11:28:35;;;;;;;7.00;4.88;;;;;;;;;;5023543;28;20045;-84
2023/08/20 11:31:10;;;;;;;8.82;4.80;;;;;;;;;;5030994;28;20049;-84
2023/08/20 11:34:02;;;;;;;6.70;4.90;;;;;;;;;;5037386;28;20483;-83
2023/08/20 11:36:43;;;;;;;6.68;4.60;;;;;;;;;;5036300;28;20500;-85
2023/08/20 11:39:21;;;;;;;6.78;4.35;;;;;;;;;;5036996;28;20049;-86
2023/08/20 11:42:01;;;;;;;6.82;4.43;;;;;;;;;;5030343;28;20060;-85
2023/08/20 11:44:54;;;;;;;6.13;4.53;;;;;;;;;;5033150;28;20142;-84
2023/08/20 11:47:24;;;;;;;6.75;4.72;;;;;;;;;;5036333;28;20157;-85
2023/08/20 11:50:06;;;;;;;;;;;;;;;;;;5054788;28;20049;-83
2023/08/20 11:52:44;;;;;;;6.72;4.05;;;;;;;;;;5032753;28;19921;-84
2023/08/20 11:55:11;;;;;;;6.13;4.80;;;;;;;;;;5033054;28;20571;-84
2023/08/20 11:57:37;;;;;;;7.15;4.10;;;;;;;;;;5029738;28;20042;-84
2023/08/20 12:00:08;;;;;;;6.20;4.40;;;;;;;;;;5020050;28;20050;-82
2023/08/20 12:02:35;;;;;;;5.85;4.43;;;;;;;;;;5020174;28;20046;-84
2023/08/20 12:05:03;;;;;;;5.60;4.25;;;;;;;;;;5033553;28;20050;-83
2023/08/20 12:07:30;;;;;;;6.95;4.57;;;;;;;;;;5035500;28;20049;-87
2023/08/20 12:09:57;;;;;;;5.47;4.30;;;;;;;;;;5037663;28;20050;-85
2023/08/20 12:12:23;;;;;;;7.00;4.07;;;;;;;;;;5038115;28;20515;-84
2023/08/20 12:14:50;;;;;;;7.18;4.50;;;;;;;;;;5019787;28;20045;-83
2023/08/20 12:17:18;;;;;;;6.18;4.75;;;;;;;;;;5027413;28;20056;-85
2023/08/20 12:19:47;;;;;;;5.82;4.72;;;;;;;;;;5040826;28;20100;-80
2023/08/20 12:22:15;;;;;;;8.30;4.97;;;;;;;;;;5038829;28;20046;-83
2023/08/20 12:24:42;;;;;;;6.38;4.22;;;;;;;;;;5039565;28;20318;-84
2023/08/20 12:27:08;;;;;;;7.47;5.10;;;;;;;;;;5046143;28;20443;-84
2023/08/20 12:29:35;;;;;;;6.57;4.40;;;;;;;;;;5042216;28;20045;-84
2023/08/20 12:32:03;;;;;;;7.25;4.75;;;;;;;;;;5038958;28;20080;-84
2023/08/20 12:34:31;;;;;;;6.30;4.53;;;;;;;;;;5037309;28;20057;-84
2023/08/20 12:36:58;;;;;;;5.15;4.10;;;;;;;;;;5036026;28;20050;-84
2023/08/20 12:39:26;;;;;;;5.50;4.20;;;;;;;;;;5039456;28;20049;-83
2023/08/20 12:41:53;;;;;;;5.95;4.47;;;;;;;;;;5036477;28;20045;-83
2023/08/20 12:44:19;;;;;;;7.00;4.55;;;;;;;;;;5043796;28;20055;-83
2023/08/20 12:46:46;;;;;;;6.43;4.70;;;;;;;;;;5038649;28;20633;-83
2023/08/20 12:49:13;;;;;;;5.93;4.20;;;;;;;;;;5037266;28;20053;-84
2023/08/20 12:51:39;;;;;;;6.43;4.53;;;;;;;;;;5038352;28;20056;-82
2023/08/20 12:54:06;;;;;;;5.60;4.40;;;;;;;;;;5035939;28;20117;-83
2023/08/20 12:56:34;;;;;;;6.68;4.90;;;;;;;;;;5033862;28;20085;-82
2023/08/20 12:59:01;;;;;;;7.85;4.90;;;;;;;;;;5035686;28;20045;-83
2023/08/20 13:01:27;;;;;;;6.90;5.18;;;;;;;;;;5035877;28;20042;-83
2023/08/20 13:03:54;;;;;;;7.05;4.88;;;;;;;;;;5037087;28;20124;-83
2023/08/20 13:06:22;;;;;;;7.97;4.68;;;;;;;;;;5036946;28;20057;-83
2023/08/20 13:08:49;;;;;;;6.22;4.72;;;;;;;;;;5033083;28;20516;-84
2023/08/20 13:11:18;;;;;;;5.93;4.93;;;;;;;;;;5031158;28;20496;-84
2023/08/20 13:13:46;;;;;;;6.45;4.75;;;;;;;;;;5036392;28;20088;-84
2023/08/20 13:16:14;;;;;;;6.03;5.22;;;;;;;;;;5035158;28;20168;-84
2023/08/20 13:18:41;;;;;;;8.55;4.78;;;;;;;;;;5034465;28;20080;-85
2023/08/20 13:21:08;;;;;;;7.82;5.45;;;;;;;;;;5034508;28;20284;-84
2023/08/20 13:23:35;;;;;;;8.65;5.03;;;;;;;;;;5040515;28;20041;-85
2023/08/20 13:26:01;;;;;;;9.07;5.70;;;;;;;;;;5042846;28;20045;-85
2023/08/20 13:31:10;;;;;;;7.80;4.95;;;;;;;;;;5050592;23;20119;-57
2023/08/20 13:33:37;;;;;;;5.82;4.85;;;;;;;;;;5049229;28;20502;-57
2023/08/20 13:36:04;;;;;;;7.85;5.50;;;;;;;;;;5047477;28;20143;-62
2023/08/20 13:38:30;;;;;;;6.43;4.80;;;;;;;;;;5048917;28;20049;-57
2023/08/20 13:40:57;;;;;;;7.68;5.55;;;;;;;;;;5051624;28;20414;-58
2023/08/20 13:43:24;;;;;;;8.02;5.25;;;;;;;;;;5051494;28;20143;-56
2023/08/20 13:45:51;;;;;;;7.50;5.10;;;;;;;;;;5051746;28;20045;-54
2023/08/20 13:48:19;;;;;;;6.88;5.10;;;;;;;;;;5051834;28;20053;-59
2023/08/20 13:50:45;;;;;;;5.57;4.90;;;;;;;;;;5051594;28;20048;-55
2023/08/20 13:53:12;;;;;;;5.78;5.18;;;;;;;;;;5051906;28;20414;-58
2023/08/20 13:55:38;;;;;;;6.88;5.75;;;;;;;;;;5052063;28;20051;-58
2023/08/20 13:58:05;;;;;;;5.60;4.85;;;;;;;;;;5051596;28;20136;-56
2023/08/20 14:00:32;;;;;;;5.55;4.82;;;;;;;;;;5051537;28;20139;-56
2023/08/20 14:02:59;;;;;;;6.28;4.80;;;;;;;;;;5051568;28;20041;-58
2023/08/20 14:05:28;;;;;;;6.78;5.03;;;;;;;;;;5051298;28;20045;-57
2023/08/20 14:07:55;;;;;;;5.75;4.80;;;;;;;;;;5051474;28;20132;-57
2023/08/20 14:10:22;;;;;;;6.07;5.40;;;;;;;;;;5051676;28;20133;-58
2023/08/20 14:12:48;;;;;;;6.72;5.32;;;;;;;;;;5051314;28;20056;-58
2023/08/20 14:15:15;;;;;;;7.40;4.65;;;;;;;;;;5051462;28;20550;-57
2023/08/20 14:17:42;;;;;;;6.93;4.90;;;;;;;;;;5051397;28;20486;-56
2023/08/20 14:20:11;;;;;;;5.50;4.78;;;;;;;;;;5051315;28;20139;-58
2023/08/20 14:22:38;;;;;;;5.70;4.85;;;;;;;;;;5051524;28;20453;-57
2023/08/20 14:25:06;;;;;;;5.72;4.53;;;;;;;;;;5051206;28;20041;-57
2023/08/20 14:27:32;;;;;;;7.63;5.20;;;;;;;;;;5051631;28;20441;-53
2023/08/20 14:29:59;;;;;;;5.95;4.85;;;;;;;;;;5051116;28;20044;-57
2023/08/20 14:32:25;;;;;;;6.80;4.53;;;;;;;;;;5051052;28;20447;-57
2023/08/20 14:34:52;;;;;;;6.60;4.70;;;;;;;;;;5051359;28;20045;-60
2023/08/20 14:37:19;;;;;;;5.63;4.63;;;;;;;;;;5051455;28;20048;-58
2023/08/20 14:39:47;;;;;;;7.60;5.30;;;;;;;;;;5053375;28;20413;-58
2023/08/20 14:42:13;;;;;;;7.43;4.60;;;;;;;;;;5055178;28;20132;-58
2023/08/20 14:44:40;;;;;;;6.32;5.45;;;;;;;;;;5055376;28;20041;-56
2023/08/20 14:47:07;;;;;;;7.53;5.43;;;;;;;;;;5054735;28;20063;-54
2023/08/20 14:49:34;;;;;;;6.32;4.72;;;;;;;;;;5055135;28;20077;-57